sensor_id;sensor_type;location;lat;lon;timestamp;P1;durP1;ratioP1;P2;durP2;ratioP2
24826;SDS011;12910;57.690;11.974;2022-11-02T00:00:05;17.60;;;2.50;;
24826;SDS011;12910;57.690;11.974;2022-11-02T00:02:37;13.57;;;3.07;;
24826;SDS011;12910;57.690;11.974;2022-11-02T00:05:02;8.10;;;2.40;;
24826;SDS011;12910;57.690;11.974;2022-11-02T00:07:28;14.47;;;2.63;;
24826;SDS011;12910;57.690;11.974;2022-11-02T00:09:53;11.77;;;2.13;;
24826;SDS011;12910;57.690;11.974;2022-11-02T00:12:19;11.13;;;2.77;;
24826;SDS011;12910;57.690;11.974;2022-11-02T00:14:44;11.10;;;2.00;;
24826;SDS011;12910;57.690;11.974;2022-11-02T00:17:09;8.83;;;2.23;;
24826;SDS011;12910;57.690;11.974;2022-11-02T00:19:35;9.83;;;2.03;;
24826;SDS011;12910;57.690;11.974;2022-11-02T00:22:00;13.17;;;3.00;;
24826;SDS011;12910;57.690;11.974;2022-11-02T00:24:26;18.40;;;2.90;;
24826;SDS011;12910;57.690;11.974;2022-11-02T00:26:52;7.77;;;2.77;;
24826;SDS011;12910;57.690;11.974;2022-11-02T00:29:18;13.17;;;2.90;;
24826;SDS011;12910;57.690;11.974;2022-11-02T00:31:45;8.70;;;1.87;;
24826;SDS011;12910;57.690;11.974;2022-11-02T00:34:10;10.63;;;2.47;;
24826;SDS011;12910;57.690;11.974;2022-11-02T00:36:36;10.77;;;2.30;;
24826;SDS011;12910;57.690;11.974;2022-11-02T00:39:01;9.77;;;2.17;;
24826;SDS011;12910;57.690;11.974;2022-11-02T00:41:27;8.43;;;2.17;;
24826;SDS011;12910;57.690;11.974;2022-11-02T00:43:52;18.73;;;2.20;;
24826;SDS011;12910;57.690;11.974;2022-11-02T00:46:18;10.43;;;2.30;;
24826;SDS011;12910;57.690;11.974;2022-11-02T00:48:44;10.27;;;1.77;;
24826;SDS011;12910;57.690;11.974;2022-11-02T00:51:09;14.10;;;3.67;;
24826;SDS011;12910;57.690;11.974;2022-11-02T00:53:35;9.07;;;2.50;;
24826;SDS011;12910;57.690;11.974;2022-11-02T00:56:00;13.90;;;2.60;;
24826;SDS011;12910;57.690;11.974;2022-11-02T00:58:25;8.57;;;2.17;;
24826;SDS011;12910;57.690;11.974;2022-11-02T01:00:51;15.77;;;3.20;;
24826;SDS011;12910;57.690;11.974;2022-11-02T01:03:16;8.77;;;2.57;;
24826;SDS011;12910;57.690;11.974;2022-11-02T01:05:41;15.53;;;1.93;;
24826;SDS011;12910;57.690;11.974;2022-11-02T01:08:07;9.80;;;1.90;;
24826;SDS011;12910;57.690;11.974;2022-11-02T01:10:32;5.83;;;1.77;;
24826;SDS011;12910;57.690;11.974;2022-11-02T01:12:58;14.37;;;2.80;;
24826;SDS011;12910;57.690;11.974;2022-11-02T01:15:25;9.33;;;2.43;;
24826;SDS011;12910;57.690;11.974;2022-11-02T01:17:50;11.73;;;2.53;;
24826;SDS011;12910;57.690;11.974;2022-11-02T01:20:16;16.20;;;4.07;;
24826;SDS011;12910;57.690;11.974;2022-11-02T01:22:41;19.37;;;2.80;;
24826;SDS011;12910;57.690;11.974;2022-11-02T01:25:06;17.93;;;2.10;;
24826;SDS011;12910;57.690;11.974;2022-11-02T01:27:33;5.03;;;1.97;;
24826;SDS011;12910;57.690;11.974;2022-11-02T01:29:58;14.43;;;2.50;;
24826;SDS011;12910;57.690;11.974;2022-11-02T01:32:24;12.30;;;2.80;;
24826;SDS011;12910;57.690;11.974;2022-11-02T01:34:49;9.20;;;2.20;;
24826;SDS011;12910;57.690;11.974;2022-11-02T01:37:14;12.27;;;3.40;;
24826;SDS011;12910;57.690;11.974;2022-11-02T01:39:40;18.53;;;2.23;;
24826;SDS011;12910;57.690;11.974;2022-11-02T01:42:15;6.30;;;2.27;;
24826;SDS011;12910;57.690;11.974;2022-11-02T01:44:45;18.40;;;2.23;;
24826;SDS011;12910;57.690;11.974;2022-11-02T01:47:27;8.03;;;1.97;;
24826;SDS011;12910;57.690;11.974;2022-11-02T01:50:02;16.33;;;1.70;;
24826;SDS011;12910;57.690;11.974;2022-11-02T01:52:34;15.90;;;2.27;;
24826;SDS011;12910;57.690;11.974;2022-11-02T01:57:38;9.43;;;2.37;;
24826;SDS011;12910;57.690;11.974;2022-11-02T02:00:12;11.20;;;2.27;;
24826;SDS011;12910;57.690;11.974;2022-11-02T02:02:53;26.57;;;2.47;;
24826;SDS011;12910;57.690;11.974;2022-11-02T02:05:24;16.10;;;2.37;;
24826;SDS011;12910;57.690;11.974;2022-11-02T02:07:50;5.77;;;2.13;;
24826;SDS011;12910;57.690;11.974;2022-11-02T02:10:17;17.17;;;2.83;;
24826;SDS011;12910;57.690;11.974;2022-11-02T02:12:43;6.90;;;2.17;;
24826;SDS011;12910;57.690;11.974;2022-11-02T02:15:09;14.67;;;2.27;;
24826;SDS011;12910;57.690;11.974;2022-11-02T02:20:30;7.97;;;1.90;;
24826;SDS011;12910;57.690;11.974;2022-11-02T02:29:04;7.37;;;1.43;;
24826;SDS011;12910;57.690;11.974;2022-11-02T02:34:36;8.67;;;2.47;;
24826;SDS011;12910;57.690;11.974;2022-11-02T02:37:13;5.77;;;1.50;;
24826;SDS011;12910;57.690;11.974;2022-11-02T02:39:51;9.80;;;2.10;;
24826;SDS011;12910;57.690;11.974;2022-11-02T02:42:30;13.10;;;1.50;;
24826;SDS011;12910;57.690;11.974;2022-11-02T02:50:42;7.27;;;1.47;;
24826;SDS011;12910;57.690;11.974;2022-11-02T02:53:13;14.53;;;1.93;;
24826;SDS011;12910;57.690;11.974;2022-11-02T02:55:42;13.20;;;1.67;;
24826;SDS011;12910;57.690;11.974;2022-11-02T02:58:11;8.50;;;3.37;;
24826;SDS011;12910;57.690;11.974;2022-11-02T03:00:41;12.17;;;1.97;;
24826;SDS011;12910;57.690;11.974;2022-11-02T03:03:08;9.73;;;3.37;;
24826;SDS011;12910;57.690;11.974;2022-11-02T03:05:40;5.73;;;1.70;;
24826;SDS011;12910;57.690;11.974;2022-11-02T03:08:09;12.17;;;1.70;;
24826;SDS011;12910;57.690;11.974;2022-11-02T03:15:50;10.67;;;2.13;;
24826;SDS011;12910;57.690;11.974;2022-11-02T03:23:55;13.20;;;1.93;;
24826;SDS011;12910;57.690;11.974;2022-11-02T03:26:31;4.60;;;1.50;;
24826;SDS011;12910;57.690;11.974;2022-11-02T03:29:11;10.10;;;1.57;;
24826;SDS011;12910;57.690;11.974;2022-11-02T03:34:21;6.63;;;2.27;;
24826;SDS011;12910;57.690;11.974;2022-11-02T03:36:59;10.90;;;1.57;;
24826;SDS011;12910;57.690;11.974;2022-11-02T03:39:36;8.60;;;2.43;;
24826;SDS011;12910;57.690;11.974;2022-11-02T03:42:05;8.77;;;1.77;;
24826;SDS011;12910;57.690;11.974;2022-11-02T03:44:36;11.33;;;1.73;;
24826;SDS011;12910;57.690;11.974;2022-11-02T03:47:03;9.33;;;1.47;;
24826;SDS011;12910;57.690;11.974;2022-11-02T03:49:33;15.10;;;2.90;;
24826;SDS011;12910;57.690;11.974;2022-11-02T03:52:02;11.33;;;2.17;;
24826;SDS011;12910;57.690;11.974;2022-11-02T03:54:39;7.03;;;1.77;;
24826;SDS011;12910;57.690;11.974;2022-11-02T03:57:21;22.20;;;2.53;;
24826;SDS011;12910;57.690;11.974;2022-11-02T03:59:51;9.47;;;1.47;;
24826;SDS011;12910;57.690;11.974;2022-11-02T04:02:16;8.33;;;1.77;;
24826;SDS011;12910;57.690;11.974;2022-11-02T04:04:49;9.23;;;2.23;;
24826;SDS011;12910;57.690;11.974;2022-11-02T04:07:20;8.70;;;2.47;;
24826;SDS011;12910;57.690;11.974;2022-11-02T04:09:51;9.13;;;2.63;;
24826;SDS011;12910;57.690;11.974;2022-11-02T04:12:16;10.07;;;1.77;;
24826;SDS011;12910;57.690;11.974;2022-11-02T04:15:00;8.10;;;1.67;;
24826;SDS011;12910;57.690;11.974;2022-11-02T04:17:26;8.77;;;2.37;;
24826;SDS011;12910;57.690;11.974;2022-11-02T04:20:10;11.27;;;2.13;;
24826;SDS011;12910;57.690;11.974;2022-11-02T04:22:36;11.07;;;2.17;;
24826;SDS011;12910;57.690;11.974;2022-11-02T04:25:20;3.80;;;1.80;;
24826;SDS011;12910;57.690;11.974;2022-11-02T04:27:49;8.87;;;2.93;;
24826;SDS011;12910;57.690;11.974;2022-11-02T04:30:17;11.77;;;1.87;;
24826;SDS011;12910;57.690;11.974;2022-11-02T04:32:45;7.20;;;2.90;;
24826;SDS011;12910;57.690;11.974;2022-11-02T04:35:31;4.67;;;1.50;;
24826;SDS011;12910;57.690;11.974;2022-11-02T04:37:57;9.53;;;1.87;;
24826;SDS011;12910;57.690;11.974;2022-11-02T04:40:41;7.33;;;1.97;;
24826;SDS011;12910;57.690;11.974;2022-11-02T04:43:07;7.67;;;1.50;;
24826;SDS011;12910;57.690;11.974;2022-11-02T04:45:33;6.87;;;1.73;;
24826;SDS011;12910;57.690;11.974;2022-11-02T04:47:59;14.53;;;2.50;;
24826;SDS011;12910;57.690;11.974;2022-11-02T04:50:25;9.00;;;1.50;;
24826;SDS011;12910;57.690;11.974;2022-11-02T04:52:55;7.90;;;1.90;;
24826;SDS011;12910;57.690;11.974;2022-11-02T04:55:21;12.33;;;2.10;;
24826;SDS011;12910;57.690;11.974;2022-11-02T04:57:46;7.60;;;1.90;;
24826;SDS011;12910;57.690;11.974;2022-11-02T05:00:12;6.00;;;1.87;;
24826;SDS011;12910;57.690;11.974;2022-11-02T05:02:38;6.17;;;1.93;;
24826;SDS011;12910;57.690;11.974;2022-11-02T05:05:03;8.17;;;1.73;;
24826;SDS011;12910;57.690;11.974;2022-11-02T05:07:30;12.73;;;2.10;;
24826;SDS011;12910;57.690;11.974;2022-11-02T05:09:55;8.27;;;2.93;;
24826;SDS011;12910;57.690;11.974;2022-11-02T05:12:21;11.10;;;1.53;;
24826;SDS011;12910;57.690;11.974;2022-11-02T05:14:46;8.50;;;1.60;;
24826;SDS011;12910;57.690;11.974;2022-11-02T05:17:11;8.37;;;1.90;;
24826;SDS011;12910;57.690;11.974;2022-11-02T05:19:37;9.30;;;2.40;;
24826;SDS011;12910;57.690;11.974;2022-11-02T05:22:02;7.83;;;2.03;;
24826;SDS011;12910;57.690;11.974;2022-11-02T05:24:28;14.10;;;2.97;;
24826;SDS011;12910;57.690;11.974;2022-11-02T05:26:53;12.83;;;2.50;;
24826;SDS011;12910;57.690;11.974;2022-11-02T05:29:18;13.20;;;3.03;;
24826;SDS011;12910;57.690;11.974;2022-11-02T05:31:44;10.47;;;2.00;;
24826;SDS011;12910;57.690;11.974;2022-11-02T05:34:09;14.20;;;2.13;;
24826;SDS011;12910;57.690;11.974;2022-11-02T05:36:35;15.97;;;2.10;;
24826;SDS011;12910;57.690;11.974;2022-11-02T05:39:00;11.97;;;3.17;;
24826;SDS011;12910;57.690;11.974;2022-11-02T05:41:25;12.17;;;2.40;;
24826;SDS011;12910;57.690;11.974;2022-11-02T05:43:51;19.23;;;2.90;;
24826;SDS011;12910;57.690;11.974;2022-11-02T05:46:16;6.30;;;3.03;;
24826;SDS011;12910;57.690;11.974;2022-11-02T05:48:42;10.00;;;2.60;;
24826;SDS011;12910;57.690;11.974;2022-11-02T05:51:08;16.03;;;2.43;;
24826;SDS011;12910;57.690;11.974;2022-11-02T05:53:34;20.33;;;3.53;;
24826;SDS011;12910;57.690;11.974;2022-11-02T05:56:02;6.77;;;2.47;;
24826;SDS011;12910;57.690;11.974;2022-11-02T05:58:29;9.97;;;2.53;;
24826;SDS011;12910;57.690;11.974;2022-11-02T06:00:59;15.43;;;3.60;;
24826;SDS011;12910;57.690;11.974;2022-11-02T06:03:29;18.60;;;2.63;;
24826;SDS011;12910;57.690;11.974;2022-11-02T06:05:56;6.13;;;2.23;;
24826;SDS011;12910;57.690;11.974;2022-11-02T06:08:22;10.33;;;2.87;;
24826;SDS011;12910;57.690;11.974;2022-11-02T06:10:48;8.63;;;2.23;;
24826;SDS011;12910;57.690;11.974;2022-11-02T06:13:13;11.87;;;2.77;;
24826;SDS011;12910;57.690;11.974;2022-11-02T06:15:38;16.83;;;3.57;;
24826;SDS011;12910;57.690;11.974;2022-11-02T06:18:04;7.40;;;3.33;;
24826;SDS011;12910;57.690;11.974;2022-11-02T06:20:29;15.67;;;2.67;;
24826;SDS011;12910;57.690;11.974;2022-11-02T06:22:55;9.37;;;2.37;;
24826;SDS011;12910;57.690;11.974;2022-11-02T06:25:21;5.93;;;2.60;;
24826;SDS011;12910;57.690;11.974;2022-11-02T06:27:50;16.80;;;2.97;;
24826;SDS011;12910;57.690;11.974;2022-11-02T06:30:17;10.50;;;3.13;;
24826;SDS011;12910;57.690;11.974;2022-11-02T06:32:49;14.20;;;3.00;;
24826;SDS011;12910;57.690;11.974;2022-11-02T06:35:16;19.40;;;2.50;;
24826;SDS011;12910;57.690;11.974;2022-11-02T06:37:43;14.33;;;3.10;;
24826;SDS011;12910;57.690;11.974;2022-11-02T06:40:09;18.50;;;2.50;;
24826;SDS011;12910;57.690;11.974;2022-11-02T06:42:36;8.30;;;2.67;;
24826;SDS011;12910;57.690;11.974;2022-11-02T06:45:02;23.20;;;2.20;;
24826;SDS011;12910;57.690;11.974;2022-11-02T06:47:31;14.07;;;2.50;;
24826;SDS011;12910;57.690;11.974;2022-11-02T06:49:58;11.80;;;3.80;;
24826;SDS011;12910;57.690;11.974;2022-11-02T06:52:24;19.83;;;5.90;;
24826;SDS011;12910;57.690;11.974;2022-11-02T06:54:50;12.47;;;2.33;;
24826;SDS011;12910;57.690;11.974;2022-11-02T06:57:15;8.63;;;1.90;;
24826;SDS011;12910;57.690;11.974;2022-11-02T06:59:40;10.40;;;2.73;;
24826;SDS011;12910;57.690;11.974;2022-11-02T07:02:07;10.40;;;2.40;;
24826;SDS011;12910;57.690;11.974;2022-11-02T07:04:33;12.40;;;3.30;;
24826;SDS011;12910;57.690;11.974;2022-11-02T07:06:58;15.63;;;2.97;;
24826;SDS011;12910;57.690;11.974;2022-11-02T07:09:24;18.70;;;2.23;;
24826;SDS011;12910;57.690;11.974;2022-11-02T07:11:49;12.40;;;2.40;;
24826;SDS011;12910;57.690;11.974;2022-11-02T07:14:14;5.90;;;2.70;;
24826;SDS011;12910;57.690;11.974;2022-11-02T07:16:40;14.27;;;2.93;;
24826;SDS011;12910;57.690;11.974;2022-11-02T07:19:05;4.60;;;3.03;;
24826;SDS011;12910;57.690;11.974;2022-11-02T07:21:31;8.60;;;2.23;;
24826;SDS011;12910;57.690;11.974;2022-11-02T07:23:56;7.47;;;2.17;;
24826;SDS011;12910;57.690;11.974;2022-11-02T07:26:21;14.37;;;2.30;;
24826;SDS011;12910;57.690;11.974;2022-11-02T07:28:47;9.33;;;2.27;;
24826;SDS011;12910;57.690;11.974;2022-11-02T07:31:12;5.73;;;1.90;;
24826;SDS011;12910;57.690;11.974;2022-11-02T07:33:38;12.17;;;2.53;;
24826;SDS011;12910;57.690;11.974;2022-11-02T07:36:03;7.03;;;1.97;;
24826;SDS011;12910;57.690;11.974;2022-11-02T07:38:30;16.53;;;1.97;;
24826;SDS011;12910;57.690;11.974;2022-11-02T07:40:55;5.00;;;2.07;;
24826;SDS011;12910;57.690;11.974;2022-11-02T07:43:21;7.07;;;1.63;;
24826;SDS011;12910;57.690;11.974;2022-11-02T07:45:46;4.30;;;1.80;;
24826;SDS011;12910;57.690;11.974;2022-11-02T07:48:11;10.33;;;2.07;;
24826;SDS011;12910;57.690;11.974;2022-11-02T07:50:37;4.70;;;1.70;;
24826;SDS011;12910;57.690;11.974;2022-11-02T07:53:02;10.40;;;2.50;;
24826;SDS011;12910;57.690;11.974;2022-11-02T07:55:28;8.07;;;2.40;;
24826;SDS011;12910;57.690;11.974;2022-11-02T07:58:02;9.23;;;3.37;;
24826;SDS011;12910;57.690;11.974;2022-11-02T08:00:30;7.97;;;3.00;;
24826;SDS011;12910;57.690;11.974;2022-11-02T08:02:58;13.50;;;2.70;;
24826;SDS011;12910;57.690;11.974;2022-11-02T08:05:25;9.90;;;2.90;;
24826;SDS011;12910;57.690;11.974;2022-11-02T08:07:55;9.93;;;2.60;;
24826;SDS011;12910;57.690;11.974;2022-11-02T08:10:25;13.07;;;2.10;;
24826;SDS011;12910;57.690;11.974;2022-11-02T08:12:51;10.83;;;2.57;;
24826;SDS011;12910;57.690;11.974;2022-11-02T08:15:17;11.20;;;2.87;;
24826;SDS011;12910;57.690;11.974;2022-11-02T08:17:42;10.87;;;3.40;;
24826;SDS011;12910;57.690;11.974;2022-11-02T08:20:08;17.43;;;4.83;;
24826;SDS011;12910;57.690;11.974;2022-11-02T08:22:37;12.13;;;3.07;;
24826;SDS011;12910;57.690;11.974;2022-11-02T08:25:03;21.17;;;2.90;;
24826;SDS011;12910;57.690;11.974;2022-11-02T08:27:29;12.67;;;3.23;;
24826;SDS011;12910;57.690;11.974;2022-11-02T08:29:55;14.47;;;2.30;;
24826;SDS011;12910;57.690;11.974;2022-11-02T08:32:20;7.50;;;2.50;;
24826;SDS011;12910;57.690;11.974;2022-11-02T08:34:46;7.73;;;3.43;;
24826;SDS011;12910;57.690;11.974;2022-11-02T08:37:11;8.83;;;2.30;;
24826;SDS011;12910;57.690;11.974;2022-11-02T08:39:37;11.07;;;3.13;;
24826;SDS011;12910;57.690;11.974;2022-11-02T08:42:02;11.80;;;2.50;;
24826;SDS011;12910;57.690;11.974;2022-11-02T08:44:28;8.70;;;3.30;;
24826;SDS011;12910;57.690;11.974;2022-11-02T08:46:53;19.07;;;4.37;;
24826;SDS011;12910;57.690;11.974;2022-11-02T08:49:19;12.37;;;2.70;;
24826;SDS011;12910;57.690;11.974;2022-11-02T08:51:45;12.50;;;3.17;;
24826;SDS011;12910;57.690;11.974;2022-11-02T08:54:10;17.33;;;3.87;;
24826;SDS011;12910;57.690;11.974;2022-11-02T08:56:36;11.67;;;3.47;;
24826;SDS011;12910;57.690;11.974;2022-11-02T08:59:02;7.13;;;1.80;;
24826;SDS011;12910;57.690;11.974;2022-11-02T09:01:27;16.00;;;2.90;;
24826;SDS011;12910;57.690;11.974;2022-11-02T09:03:52;12.60;;;1.83;;
24826;SDS011;12910;57.690;11.974;2022-11-02T09:06:18;10.23;;;1.80;;
24826;SDS011;12910;57.690;11.974;2022-11-02T09:08:43;9.77;;;1.87;;
24826;SDS011;12910;57.690;11.974;2022-11-02T09:11:09;12.07;;;2.00;;
24826;SDS011;12910;57.690;11.974;2022-11-02T09:13:34;8.30;;;2.93;;
24826;SDS011;12910;57.690;11.974;2022-11-02T09:16:01;22.93;;;2.47;;
24826;SDS011;12910;57.690;11.974;2022-11-02T09:18:27;6.47;;;2.90;;
24826;SDS011;12910;57.690;11.974;2022-11-02T09:20:52;8.00;;;2.07;;
24826;SDS011;12910;57.690;11.974;2022-11-02T09:23:18;10.13;;;2.33;;
24826;SDS011;12910;57.690;11.974;2022-11-02T09:25:45;7.53;;;2.43;;
24826;SDS011;12910;57.690;11.974;2022-11-02T09:28:10;13.53;;;2.10;;
24826;SDS011;12910;57.690;11.974;2022-11-02T09:30:37;11.80;;;2.23;;
24826;SDS011;12910;57.690;11.974;2022-11-02T09:33:03;6.93;;;1.97;;
24826;SDS011;12910;57.690;11.974;2022-11-02T09:35:33;14.57;;;2.87;;
24826;SDS011;12910;57.690;11.974;2022-11-02T09:38:00;10.10;;;2.07;;
24826;SDS011;12910;57.690;11.974;2022-11-02T09:40:27;6.77;;;2.00;;
24826;SDS011;12910;57.690;11.974;2022-11-02T09:43:09;13.17;;;2.30;;
24826;SDS011;12910;57.690;11.974;2022-11-02T09:48:16;4.87;;;2.63;;
24826;SDS011;12910;57.690;11.974;2022-11-02T09:50:47;26.80;;;4.73;;
24826;SDS011;12910;57.690;11.974;2022-11-02T09:53:19;7.47;;;3.30;;
24826;SDS011;12910;57.690;11.974;2022-11-02T09:55:54;7.00;;;2.57;;
24826;SDS011;12910;57.690;11.974;2022-11-02T09:58:24;19.93;;;2.90;;
24826;SDS011;12910;57.690;11.974;2022-11-02T10:00:58;7.27;;;1.60;;
24826;SDS011;12910;57.690;11.974;2022-11-02T10:06:03;11.67;;;2.30;;
24826;SDS011;12910;57.690;11.974;2022-11-02T10:11:23;9.07;;;2.67;;
24826;SDS011;12910;57.690;11.974;2022-11-02T10:16:35;12.63;;;2.13;;
24826;SDS011;12910;57.690;11.974;2022-11-02T10:19:09;7.57;;;3.23;;
24826;SDS011;12910;57.690;11.974;2022-11-02T10:21:41;21.17;;;2.73;;
24826;SDS011;12910;57.690;11.974;2022-11-02T10:24:31;13.67;;;2.53;;
24826;SDS011;12910;57.690;11.974;2022-11-02T10:26:58;9.57;;;2.67;;
24826;SDS011;12910;57.690;11.974;2022-11-02T10:29:28;7.70;;;2.27;;
24826;SDS011;12910;57.690;11.974;2022-11-02T10:32:16;11.70;;;2.90;;
24826;SDS011;12910;57.690;11.974;2022-11-02T10:34:42;7.70;;;1.93;;
24826;SDS011;12910;57.690;11.974;2022-11-02T10:37:16;4.33;;;2.30;;
24826;SDS011;12910;57.690;11.974;2022-11-02T10:40:06;9.30;;;1.93;;
24826;SDS011;12910;57.690;11.974;2022-11-02T10:50:52;15.10;;;2.43;;
24826;SDS011;12910;57.690;11.974;2022-11-02T10:53:37;6.13;;;2.40;;
24826;SDS011;12910;57.690;11.974;2022-11-02T10:56:14;8.07;;;1.83;;
24826;SDS011;12910;57.690;11.974;2022-11-02T10:59:23;10.27;;;2.27;;
24826;SDS011;12910;57.690;11.974;2022-11-02T11:04:25;6.27;;;2.77;;
24826;SDS011;12910;57.690;11.974;2022-11-02T11:06:52;7.57;;;2.10;;
24826;SDS011;12910;57.690;11.974;2022-11-02T11:12:05;10.60;;;2.53;;
24826;SDS011;12910;57.690;11.974;2022-11-02T11:14:57;6.20;;;1.47;;
24826;SDS011;12910;57.690;11.974;2022-11-02T11:17:31;4.93;;;1.20;;
24826;SDS011;12910;57.690;11.974;2022-11-02T11:19:59;3.53;;;0.90;;
24826;SDS011;12910;57.690;11.974;2022-11-02T11:27:43;5.77;;;1.67;;
24826;SDS011;12910;57.690;11.974;2022-11-02T11:30:23;6.80;;;1.60;;
24826;SDS011;12910;57.690;11.974;2022-11-02T11:33:13;6.50;;;1.67;;
24826;SDS011;12910;57.690;11.974;2022-11-02T11:35:40;6.13;;;1.20;;
24826;SDS011;12910;57.690;11.974;2022-11-02T11:38:20;6.83;;;1.27;;
24826;SDS011;12910;57.690;11.974;2022-11-02T11:40:49;4.30;;;1.37;;
24826;SDS011;12910;57.690;11.974;2022-11-02T11:43:19;5.80;;;1.10;;
24826;SDS011;12910;57.690;11.974;2022-11-02T11:45:57;3.70;;;1.23;;
24826;SDS011;12910;57.690;11.974;2022-11-02T11:51:21;2.67;;;0.63;;
24826;SDS011;12910;57.690;11.974;2022-11-02T11:54:13;2.90;;;0.93;;
24826;SDS011;12910;57.690;11.974;2022-11-02T11:56:41;6.33;;;0.90;;
24826;SDS011;12910;57.690;11.974;2022-11-02T11:59:26;3.97;;;1.70;;
24826;SDS011;12910;57.690;11.974;2022-11-02T12:01:53;2.40;;;1.43;;
24826;SDS011;12910;57.690;11.974;2022-11-02T12:04:28;4.00;;;1.10;;
24826;SDS011;12910;57.690;11.974;2022-11-02T12:15:38;2.97;;;1.40;;
24826;SDS011;12910;57.690;11.974;2022-11-02T12:18:17;11.63;;;0.70;;
24826;SDS011;12910;57.690;11.974;2022-11-02T12:40:05;4.37;;;1.03;;
24826;SDS011;12910;57.690;11.974;2022-11-02T12:48:57;5.53;;;0.63;;
24826;SDS011;12910;57.690;11.974;2022-11-02T12:51:38;4.37;;;0.77;;
24826;SDS011;12910;57.690;11.974;2022-11-02T12:54:11;5.87;;;0.87;;
24826;SDS011;12910;57.690;11.974;2022-11-02T12:56:45;1.90;;;0.63;;
24826;SDS011;12910;57.690;11.974;2022-11-02T13:01:57;5.77;;;0.70;;
24826;SDS011;12910;57.690;11.974;2022-11-02T13:04:35;3.23;;;0.67;;
24826;SDS011;12910;57.690;11.974;2022-11-02T13:07:10;2.60;;;0.90;;
24826;SDS011;12910;57.690;11.974;2022-11-02T13:09:41;1.30;;;0.53;;
24826;SDS011;12910;57.690;11.974;2022-11-02T13:12:12;5.60;;;0.50;;
24826;SDS011;12910;57.690;11.974;2022-11-02T13:14:45;8.57;;;1.53;;
24826;SDS011;12910;57.690;11.974;2022-11-02T13:20:26;2.40;;;0.63;;
24826;SDS011;12910;57.690;11.974;2022-11-02T13:23:03;3.70;;;0.70;;
24826;SDS011;12910;57.690;11.974;2022-11-02T13:25:49;2.40;;;0.73;;
24826;SDS011;12910;57.690;11.974;2022-11-02T13:28:23;4.57;;;0.50;;
24826;SDS011;12910;57.690;11.974;2022-11-02T13:30:57;2.83;;;0.93;;
24826;SDS011;12910;57.690;11.974;2022-11-02T13:33:34;4.33;;;0.70;;
24826;SDS011;12910;57.690;11.974;2022-11-02T13:36:05;1.90;;;0.50;;
24826;SDS011;12910;57.690;11.974;2022-11-02T13:38:32;6.30;;;0.60;;
24826;SDS011;12910;57.690;11.974;2022-11-02T13:43:56;4.23;;;0.87;;
24826;SDS011;12910;57.690;11.974;2022-11-02T13:46:54;2.73;;;1.87;;
24826;SDS011;12910;57.690;11.974;2022-11-02T13:49:35;3.27;;;0.67;;
24826;SDS011;12910;57.690;11.974;2022-11-02T13:52:05;2.60;;;0.67;;
24826;SDS011;12910;57.690;11.974;2022-11-02T13:54:44;3.90;;;0.80;;
24826;SDS011;12910;57.690;11.974;2022-11-02T13:59:57;4.70;;;0.83;;
24826;SDS011;12910;57.690;11.974;2022-11-02T14:02:24;2.43;;;0.63;;
24826;SDS011;12910;57.690;11.974;2022-11-02T14:04:54;2.87;;;0.60;;
24826;SDS011;12910;57.690;11.974;2022-11-02T14:07:27;4.40;;;0.60;;
24826;SDS011;12910;57.690;11.974;2022-11-02T14:10:01;4.73;;;0.53;;
24826;SDS011;12910;57.690;11.974;2022-11-02T14:12:41;4.67;;;1.40;;
24826;SDS011;12910;57.690;11.974;2022-11-02T14:15:53;8.90;;;1.17;;
24826;SDS011;12910;57.690;11.974;2022-11-02T14:25:53;10.60;;;0.90;;
24826;SDS011;12910;57.690;11.974;2022-11-02T14:31:22;3.37;;;0.97;;
24826;SDS011;12910;57.690;11.974;2022-11-02T14:34:00;4.90;;;0.70;;
24826;SDS011;12910;57.690;11.974;2022-11-02T14:37:28;8.13;;;0.63;;
24826;SDS011;12910;57.690;11.974;2022-11-02T14:42:49;5.43;;;0.87;;
24826;SDS011;12910;57.690;11.974;2022-11-02T14:45:34;1.07;;;0.60;;
24826;SDS011;12910;57.690;11.974;2022-11-02T14:48:13;6.13;;;2.10;;
24826;SDS011;12910;57.690;11.974;2022-11-02T14:50:40;4.37;;;0.90;;
24826;SDS011;12910;57.690;11.974;2022-11-02T14:53:08;6.00;;;0.90;;
24826;SDS011;12910;57.690;11.974;2022-11-02T14:55:50;3.70;;;0.83;;
24826;SDS011;12910;57.690;11.974;2022-11-02T14:58:19;2.50;;;0.70;;
24826;SDS011;12910;57.690;11.974;2022-11-02T15:09:02;5.20;;;0.87;;
24826;SDS011;12910;57.690;11.974;2022-11-02T15:19:44;3.73;;;1.37;;
24826;SDS011;12910;57.690;11.974;2022-11-02T15:24:55;5.43;;;0.90;;
24826;SDS011;12910;57.690;11.974;2022-11-02T15:27:25;4.40;;;0.87;;
24826;SDS011;12910;57.690;11.974;2022-11-02T15:29:52;3.00;;;0.90;;
24826;SDS011;12910;57.690;11.974;2022-11-02T15:32:22;4.70;;;1.03;;
24826;SDS011;12910;57.690;11.974;2022-11-02T15:34:51;6.40;;;1.40;;
24826;SDS011;12910;57.690;11.974;2022-11-02T15:37:21;3.47;;;0.70;;
24826;SDS011;12910;57.690;11.974;2022-11-02T15:39:56;4.43;;;1.70;;
24826;SDS011;12910;57.690;11.974;2022-11-02T16:01:21;4.70;;;0.70;;
24826;SDS011;12910;57.690;11.974;2022-11-02T16:03:48;4.23;;;0.90;;
24826;SDS011;12910;57.690;11.974;2022-11-02T16:06:24;6.67;;;0.80;;
24826;SDS011;12910;57.690;11.974;2022-11-02T16:08:50;1.43;;;0.50;;
24826;SDS011;12910;57.690;11.974;2022-11-02T16:11:17;9.50;;;0.57;;
24826;SDS011;12910;57.690;11.974;2022-11-02T16:13:44;2.33;;;0.47;;
24826;SDS011;12910;57.690;11.974;2022-11-02T16:16:11;1.70;;;0.53;;
24826;SDS011;12910;57.690;11.974;2022-11-02T16:18:40;3.13;;;0.63;;
24826;SDS011;12910;57.690;11.974;2022-11-02T16:21:13;1.20;;;0.70;;
24826;SDS011;12910;57.690;11.974;2022-11-02T16:23:41;5.57;;;0.80;;
24826;SDS011;12910;57.690;11.974;2022-11-02T16:26:21;5.60;;;0.80;;
24826;SDS011;12910;57.690;11.974;2022-11-02T16:28:50;4.53;;;1.03;;
24826;SDS011;12910;57.690;11.974;2022-11-02T16:31:18;7.00;;;0.80;;
24826;SDS011;12910;57.690;11.974;2022-11-02T16:34:02;4.30;;;0.70;;
24826;SDS011;12910;57.690;11.974;2022-11-02T16:36:45;3.60;;;0.60;;
24826;SDS011;12910;57.690;11.974;2022-11-02T16:41:37;9.33;;;0.83;;
24826;SDS011;12910;57.690;11.974;2022-11-02T16:44:08;2.40;;;0.73;;
24826;SDS011;12910;57.690;11.974;2022-11-02T16:52:21;3.50;;;0.80;;
24826;SDS011;12910;57.690;11.974;2022-11-02T16:54:47;7.40;;;1.33;;
24826;SDS011;12910;57.690;11.974;2022-11-02T16:57:20;2.10;;;0.80;;
24826;SDS011;12910;57.690;11.974;2022-11-02T16:59:49;12.93;;;1.13;;
24826;SDS011;12910;57.690;11.974;2022-11-02T17:02:16;3.03;;;1.07;;
24826;SDS011;12910;57.690;11.974;2022-11-02T17:04:44;15.67;;;1.70;;
24826;SDS011;12910;57.690;11.974;2022-11-02T17:07:21;16.03;;;1.37;;
24826;SDS011;12910;57.690;11.974;2022-11-02T17:09:58;8.20;;;1.17;;
24826;SDS011;12910;57.690;11.974;2022-11-02T17:12:36;5.13;;;1.20;;
24826;SDS011;12910;57.690;11.974;2022-11-02T17:15:10;14.80;;;1.77;;
24826;SDS011;12910;57.690;11.974;2022-11-02T17:17:43;6.67;;;0.77;;
24826;SDS011;12910;57.690;11.974;2022-11-02T17:23:01;4.27;;;1.93;;
24826;SDS011;12910;57.690;11.974;2022-11-02T17:25:32;10.50;;;2.10;;
24826;SDS011;12910;57.690;11.974;2022-11-02T17:28:04;6.30;;;1.33;;
24826;SDS011;12910;57.690;11.974;2022-11-02T17:31:15;4.80;;;1.00;;
24826;SDS011;12910;57.690;11.974;2022-11-02T17:33:46;16.13;;;1.00;;
24826;SDS011;12910;57.690;11.974;2022-11-02T17:36:12;6.07;;;0.97;;
24826;SDS011;12910;57.690;11.974;2022-11-02T17:38:38;5.47;;;0.80;;